Pagrindinis puslapis
METAR-TAF:

METAR-TAF

Oro uostai :

Siemreabas, Kambodža

platuma: 13-22N, ilguma: 103-51E, Aukštis: 15 m

Dabartinis oras

Ataskaita buvo paskelbta 31 minutes, ne 19:00 UTC
Vėjas 2 kt iš Šiaurės/Šiaurės Rytų
Temperatūra 25°C
Drėgmė 94%
Slėgis 1010 hPa
Matomumas: 9000 m
Išsisklaidę debesys ne aukštis 1700 ft

METAR: VDSR 251900Z 03002KT 9000 SCT017 25/24 Q1010

Laikas: 02:31 (19:31 UTC)

Prognozė

Ataskaita buvo paskelbta 2 valandos ir 31 minutes, ne 17:00 UTC
Prognozė galioja nuo 25 metu 18 UTC su 26 metu 12 UTC
Vėjas 8 kt iš Rytų/Šiaurės Rytų
Matomumas 10 km arba daugiau
Išsisklaidę debesys ne aukštis 1700 ft

TAF: VDSR 251700Z 2518/2612 06008KT 9999 SCT017

Orai ataskaitas ir orų prognozės (METAR, TAF).

turimą stotys yra geltonos ir raudonos taškus žemėlapyje.

Perkelti pele per norėdami pamatyti stoties vardą.

Tada spustelėkite, norėdami matyti oro stebėjimo ir prognozės.

Norėdami pakeisti žemėlapį: spustelėkite ant žalios mygtukų su juodo kryžiaus žemyn,; žalią mygtuką su brūkšneliu, jei norite nutolinti; arba žalių rodyklių gretimoms žemėlapius.


METAR-TAF: